Time;durP1;ratioP1;P1;durP2;ratioP2;P2;SDS_P1;SDS_P2;PMS_P1;PMS_P2;Temp;Humidity;BMP_temperature;BMP_pressure;BME280_temperature;BME280_humidity;BME280_pressure;Samples;Min_cycle;Max_cycle;Signal;HPM_P1;HPM_P2
2022/07/17 00:01:19;;;;;;;2.10;1.50;;;;;;;12.27;64.87;100306.48;214945;1274;140097;-65
2022/07/17 00:06:24;;;;;;;5.10;1.30;;;;;;;12.25;65.33;100310.86;214392;1274;140694;-64
2022/07/17 00:11:28;;;;;;;1.40;1.10;;;;;;;12.24;65.38;100320.55;215705;1275;140103;-64
2022/07/17 00:16:32;;;;;;;1.60;1.40;;;;;;;12.21;65.38;100319.55;215866;1274;140005;-64
2022/07/17 00:21:37;;;;;;;1.40;1.20;;;;;;;12.23;65.25;100331.61;215372;1274;141136;-65
2022/07/17 00:26:41;;;;;;;1.20;1.10;;;;;;;12.21;65.71;100336.02;216003;1274;141376;-65
2022/07/17 00:31:46;;;;;;;4.10;1.50;;;;;;;12.18;65.78;100341.18;216213;1274;140979;-65
2022/07/17 00:36:51;;;;;;;1.50;1.40;;;;;;;12.19;65.64;100345.73;215932;1274;140539;-64
2022/07/17 00:41:56;;;;;;;1.40;1.20;;;;;;;12.21;66.21;100351.30;214007;1274;141591;-64
2022/07/17 00:47:00;;;;;;;2.40;1.30;;;;;;;12.22;66.04;100351.73;214885;1274;141313;-65
2022/07/17 00:52:05;;;;;;;3.70;1.20;;;;;;;12.18;66.53;100364.21;214398;1276;139815;-64
2022/07/17 00:57:15;;;;;;;3.50;1.60;;;;;;;12.17;66.41;100362.96;214266;1274;139428;-65
2022/07/17 01:02:19;;;;;;;3.20;1.60;;;;;;;12.19;66.51;100365.52;213976;1274;140735;-64
2022/07/17 01:07:24;;;;;;;1.30;1.10;;;;;;;12.21;66.57;100366.69;213331;1274;140540;-64
2022/07/17 01:12:30;;;;;;;1.40;0.80;;;;;;;12.21;66.80;100371.02;213204;1274;140935;-65
2022/07/17 01:17:35;;;;;;;1.70;1.20;;;;;;;12.18;67.04;100371.91;213789;1274;139974;-65
2022/07/17 01:22:43;;;;;;;2.00;1.60;;;;;;;12.13;67.01;100373.12;214216;1274;140065;-64
2022/07/17 01:27:47;;;;;;;;;;;;;;;12.07;67.08;100373.66;213666;1274;141078;-65
2022/07/17 01:32:53;;;;;;;6.00;1.10;;;;;;;12.00;67.12;100375.41;215341;1274;217552;-65
2022/07/17 01:37:57;;;;;;;1.60;1.50;;;;;;;11.99;67.43;100381.67;214367;1274;143844;-65
2022/07/17 01:43:03;;;;;;;5.80;1.40;;;;;;;12.00;67.51;100377.80;213256;1274;141975;-64
2022/07/17 01:48:07;;;;;;;1.90;1.00;;;;;;;12.00;67.51;100378.17;214697;1274;141145;-65
2022/07/17 01:53:11;;;;;;;2.70;1.20;;;;;;;11.92;67.48;100376.05;213708;1276;140277;-65
2022/07/17 01:58:16;;;;;;;3.90;1.20;;;;;;;11.82;67.83;100373.30;215047;1274;139479;-63
2022/07/17 02:03:22;;;;;;;4.80;1.30;;;;;;;11.78;67.84;100375.04;214997;1274;140314;-64
2022/07/17 02:08:29;;;;;;;3.30;2.00;;;;;;;11.76;67.84;100380.27;214971;1274;140864;-64
2022/07/17 02:13:33;;;;;;;;;;;;;;;11.75;68.03;100380.34;215993;1274;140888;-64
2022/07/17 02:18:39;;;;;;;3.60;1.40;;;;;;;11.74;68.19;100377.31;216760;1274;125952;-67
2022/07/17 02:23:43;;;;;;;3.20;1.00;;;;;;;11.74;68.40;100376.36;215408;1274;139280;-64
2022/07/17 02:28:47;;;;;;;3.30;1.50;;;;;;;11.73;68.49;100386.20;215918;1274;140020;-67
2022/07/17 02:33:53;;;;;;;3.50;0.90;;;;;;;11.72;68.31;100382.71;215480;1272;140590;-64
2022/07/17 02:38:58;;;;;;;1.30;1.20;;;;;;;11.71;68.33;100383.80;214765;1274;140627;-64
2022/07/17 02:44:03;;;;;;;5.10;1.40;;;;;;;11.70;68.58;100386.57;215107;1274;139762;-65
2022/07/17 02:49:09;;;;;;;2.70;1.50;;;;;;;11.70;68.74;100382.26;213480;1274;139738;-64
2022/07/17 02:54:13;;;;;;;7.50;2.40;;;;;;;11.66;69.02;100381.41;213880;1274;139914;-65
2022/07/17 02:59:18;;;;;;;2.20;1.50;;;;;;;11.62;69.08;100385.85;213526;1274;140735;-66
2022/07/17 03:04:21;;;;;;;1.50;1.00;;;;;;;11.63;69.14;100387.35;214501;1274;142517;-63
2022/07/17 03:09:26;;;;;;;1.20;1.10;;;;;;;11.66;69.13;100380.91;214893;1274;141047;-64
2022/07/17 03:14:31;;;;;;;2.60;1.40;;;;;;;11.64;69.10;100383.17;214275;1275;141166;-64
2022/07/17 03:19:36;;;;;;;1.40;1.20;;;;;;;11.55;69.21;100386.09;214232;1274;140729;-65
2022/07/17 03:24:42;;;;;;;3.70;1.40;;;;;;;11.49;69.32;100396.38;213668;1274;140869;-66
2022/07/17 03:29:46;;;;;;;1.70;1.30;;;;;;;11.48;69.49;100408.43;213405;1274;142448;-64
2022/07/17 03:34:50;;;;;;;6.00;2.50;;;;;;;11.45;69.69;100415.49;215258;1274;140689;-65
2022/07/17 03:39:54;;;;;;;3.90;0.80;;;;;;;11.45;69.75;100424.89;214459;1274;140689;-65
2022/07/17 03:44:59;;;;;;;2.90;1.60;;;;;;;11.49;70.00;100427.02;214516;1275;142124;-65
2022/07/17 03:50:03;;;;;;;6.60;1.50;;;;;;;11.53;69.95;100434.54;215095;1274;141601;-67
2022/07/17 03:55:09;;;;;;;5.70;1.50;;;;;;;11.72;69.95;100442.84;214034;1274;140843;-64
2022/07/17 04:00:14;;;;;;;2.30;2.00;;;;;;;11.85;70.05;100441.27;215043;1274;140755;-65
2022/07/17 04:05:18;;;;;;;5.90;1.80;;;;;;;12.14;70.00;100451.27;215065;1274;139980;-65
2022/07/17 04:10:22;;;;;;;5.30;2.40;;;;;;;12.48;69.79;100454.55;215739;1274;139890;-67
2022/07/17 04:20:55;;;;;;;5.80;2.30;;;;;;;12.77;69.46;100462.56;214509;1274;140999;-65
2022/07/17 04:26:00;;;;;;;1.30;1.20;;;;;;;12.91;69.40;100468.23;215173;1274;140023;-66
2022/07/17 04:31:13;;;;;;;3.70;1.80;;;;;;;13.57;68.69;100469.42;215774;1274;140312;-65
2022/07/17 04:36:18;;;;;;;1.70;1.30;;;;;;;14.86;67.27;100465.17;213654;1274;141870;-65
2022/07/17 04:41:22;;;;;;;3.10;1.50;;;;;;;15.41;66.51;100472.40;215206;1274;141143;-66
2022/07/17 04:46:27;;;;;;;10.20;2.50;;;;;;;18.42;62.96;100471.29;213738;1274;141069;-65
2022/07/17 04:51:32;;;;;;;3.60;1.50;;;;;;;18.74;62.12;100474.54;214525;1274;139970;-65
2022/07/17 04:56:36;;;;;;;1.90;1.40;;;;;;;19.10;60.55;100477.68;214744;1274;141770;-64
2022/07/17 05:01:40;;;;;;;2.20;1.80;;;;;;;19.37;59.82;100485.48;214250;1274;140064;-64
2022/07/17 05:06:44;;;;;;;8.70;1.50;;;;;;;18.72;59.40;100488.16;213910;1274;139927;-64
2022/07/17 05:11:49;;;;;;;2.20;1.50;;;;;;;19.77;58.17;100493.12;214180;1274;142792;-63
2022/07/17 05:16:54;;;;;;;5.30;1.80;;;;;;;23.22;54.67;100494.55;214333;1274;139733;-64
2022/07/17 05:21:59;;;;;;;4.00;1.60;;;;;;;25.00;52.50;100506.16;214318;1274;139345;-64
2022/07/17 05:27:05;;;;;;;1.40;1.20;;;;;;;27.74;48.34;100510.36;213386;1274;150846;-64
2022/07/17 05:32:09;;;;;;;3.20;1.10;;;;;;;30.90;44.84;100523.45;214869;1274;139566;-64
2022/07/17 05:37:14;;;;;;;4.10;1.10;;;;;;;33.21;41.21;100522.77;214108;1276;139425;-64
2022/07/17 05:42:19;;;;;;;3.20;1.00;;;;;;;35.31;38.50;100527.02;215152;1274;139967;-64
2022/07/17 05:47:24;;;;;;;1.10;0.70;;;;;;;37.12;35.43;100524.13;215004;1274;140002;-66
2022/07/17 05:52:28;;;;;;;3.50;1.50;;;;;;;38.57;33.03;100524.16;214501;1277;140946;-65
2022/07/17 05:57:33;;;;;;;1.70;0.60;;;;;;;39.74;31.05;100531.63;215193;1276;140609;-65
2022/07/17 06:02:38;;;;;;;2.50;0.70;;;;;;;40.59;29.26;100528.69;214765;1276;140474;-65
2022/07/17 06:07:43;;;;;;;3.90;1.10;;;;;;;41.01;27.41;100522.23;215342;1276;141022;-66
2022/07/17 06:12:47;;;;;;;5.10;1.20;;;;;;;41.25;26.47;100529.16;216206;1275;140197;-66
2022/07/17 06:17:51;;;;;;;2.00;1.00;;;;;;;41.72;25.65;100531.41;215920;1274;139731;-66
2022/07/17 06:22:56;;;;;;;1.00;0.50;;;;;;;41.85;24.86;100532.61;215971;1276;139453;-66
2022/07/17 06:28:01;;;;;;;1.70;0.80;;;;;;;42.06;24.49;100532.15;215970;1275;141072;-66
2022/07/17 06:33:05;;;;;;;6.70;0.90;;;;;;;42.19;23.72;100532.98;213743;1277;140416;-66
2022/07/17 06:38:10;;;;;;;6.30;0.70;;;;;;;41.75;23.75;100538.55;214542;1277;141104;-66
2022/07/17 06:43:15;;;;;;;0.70;0.70;;;;;;;41.58;23.56;100543.48;213405;1275;140854;-65
2022/07/17 06:48:19;;;;;;;3.40;0.60;;;;;;;41.08;23.20;100545.07;214630;1274;140186;-65
2022/07/17 06:53:24;;;;;;;0.40;0.40;;;;;;;39.64;23.87;100546.63;214165;1274;142221;-65
2022/07/17 06:58:32;;;;;;;1.40;0.80;;;;;;;37.63;24.40;100548.80;213556;1273;140223;-65
2022/07/17 07:03:38;;;;;;;1.00;0.50;;;;;;;36.50;25.01;100553.57;214118;1274;140783;-65
2022/07/17 07:08:43;;;;;;;1.00;0.60;;;;;;;35.93;25.50;100555.33;213589;1274;141487;-66
2022/07/17 07:13:48;;;;;;;3.00;1.00;;;;;;;36.18;25.52;100556.90;213699;1276;140081;-65
2022/07/17 07:18:53;;;;;;;0.30;0.30;;;;;;;36.79;25.69;100556.48;213681;1274;142354;-66
2022/07/17 07:23:58;;;;;;;2.10;0.50;;;;;;;37.25;25.48;100555.16;213939;1274;141163;-67
2022/07/17 07:29:05;;;;;;;0.40;0.40;;;;;;;37.13;25.14;100555.14;213699;1275;140904;-66
2022/07/17 07:34:09;;;;;;;2.40;0.30;;;;;;;35.92;25.18;100557.95;214678;1274;139747;-67
2022/07/17 07:39:14;;;;;;;5.50;0.80;;;;;;;34.47;25.80;100560.15;214421;1274;140326;-66
2022/07/17 07:44:19;;;;;;;2.20;0.80;;;;;;;33.30;27.18;100559.72;214355;1273;140941;-67
2022/07/17 07:49:33;;;;;;;0.90;0.60;;;;;;;32.27;27.79;100563.04;213424;1274;139501;-66
2022/07/17 07:54:43;;;;;;;1.00;0.50;;;;;;;31.91;28.38;100566.46;214195;1274;139797;-66
2022/07/17 07:59:48;;;;;;;1.30;0.70;;;;;;;31.49;28.82;100567.21;214502;1273;140481;-65
2022/07/17 08:04:53;;;;;;;0.70;0.70;;;;;;;30.68;29.11;100565.17;215372;1274;140486;-65
2022/07/17 08:09:58;;;;;;;1.20;0.60;;;;;;;30.38;30.01;100567.13;216200;1274;139238;-65
2022/07/17 08:15:02;;;;;;;;;;;;;;;29.72;30.08;100563.39;216264;1273;139318;-67
2022/07/17 08:20:08;;;;;;;3.30;1.00;;;;;;;29.24;30.77;100564.81;216978;1274;126953;-68
2022/07/17 08:25:17;;;;;;;0.60;0.50;;;;;;;28.91;31.71;100564.41;213998;1274;139807;-65
2022/07/17 08:30:22;;;;;;;2.30;0.50;;;;;;;28.29;31.95;100570.90;215227;1274;139306;-65
2022/07/17 08:35:26;;;;;;;1.30;0.60;;;;;;;28.14;32.85;100573.25;214675;1274;142342;-65
2022/07/17 08:40:36;;;;;;;4.30;0.90;;;;;;;27.34;32.74;100578.14;213309;1273;140353;-64
2022/07/17 08:45:43;;;;;;;4.40;1.20;;;;;;;26.68;33.64;100577.54;215113;1273;141351;-65
2022/07/17 08:50:55;;;;;;;2.60;1.00;;;;;;;26.47;34.08;100581.45;214670;1274;141339;-64
2022/07/17 08:56:00;;;;;;;5.20;0.80;;;;;;;26.14;34.60;100588.54;214309;1274;139417;-64
2022/07/17 09:01:05;;;;;;;1.70;0.80;;;;;;;26.41;34.82;100586.08;213538;1274;572584;-64
2022/07/17 09:06:21;;;;;;;1.40;0.80;;;;;;;26.06;34.57;100585.27;214071;1274;139470;-64
2022/07/17 09:11:27;;;;;;;4.50;1.10;;;;;;;25.84;35.16;100587.73;214270;1274;140166;-64
2022/07/17 09:16:36;;;;;;;3.20;1.10;;;;;;;25.56;35.50;100589.44;214112;1274;139625;-64
2022/07/17 09:21:44;;;;;;;1.80;0.90;;;;;;;25.79;36.20;100592.70;214142;1274;140096;-65
2022/07/17 09:26:50;;;;;;;3.20;0.70;;;;;;;25.56;36.01;100599.55;214311;1274;140994;-64
2022/07/17 09:31:55;;;;;;;0.70;0.70;;;;;;;25.67;35.80;100605.98;213462;1273;140468;-64
2022/07/17 09:37:03;;;;;;;5.30;0.70;;;;;;;25.35;35.74;100601.00;215188;1274;139642;-64
2022/07/17 09:42:07;;;;;;;0.70;0.40;;;;;;;25.29;36.08;100596.08;214537;1274;141764;-64
2022/07/17 09:47:12;;;;;;;2.70;1.10;;;;;;;24.65;35.87;100598.63;213262;1274;139258;-64
2022/07/17 09:52:17;;;;;;;1.00;0.70;;;;;;;24.71;36.72;100594.88;214341;1274;140291;-65
2022/07/17 09:57:25;;;;;;;1.40;0.90;;;;;;;25.32;36.61;100583.73;213455;1274;140266;-65
2022/07/17 10:02:29;;;;;;;3.90;1.20;;;;;;;24.87;36.17;100593.27;215270;1273;140056;-64
2022/07/17 10:07:34;;;;;;;2.70;1.00;;;;;;;24.69;36.23;100594.14;214605;1274;139291;-65
2022/07/17 10:12:40;;;;;;;6.00;1.10;;;;;;;25.20;36.69;100589.45;216129;1274;139917;-65
2022/07/17 10:17:44;;;;;;;0.50;0.50;;;;;;;25.63;36.55;100589.23;216159;1274;140911;-64
2022/07/17 10:22:49;;;;;;;;;;;;;;;25.97;35.78;100588.27;216251;1274;139824;-65
2022/07/17 10:27:55;;;;;;;2.70;0.90;;;;;;;25.47;35.19;100594.80;216759;1274;127128;-65
2022/07/17 10:33:15;;;;;;;2.60;0.50;;;;;;;25.55;35.55;100594.15;215233;1274;140891;-64
2022/07/17 10:38:21;;;;;;;1.40;1.00;;;;;;;25.72;35.49;100592.41;214158;1276;140298;-64
2022/07/17 10:43:24;;;;;;;0.90;0.50;;;;;;;25.28;35.23;100591.30;215319;1274;139279;-65
2022/07/17 10:48:30;;;;;;;1.40;0.50;;;;;;;25.62;35.40;100591.52;213570;1274;139411;-64
2022/07/17 10:53:35;;;;;;;3.90;0.70;;;;;;;26.10;35.52;100585.92;214084;1274;139882;-64
2022/07/17 10:58:41;;;;;;;6.90;0.90;;;;;;;26.57;35.05;100591.44;214651;1274;139281;-65
2022/07/17 11:03:57;;;;;;;4.40;1.00;;;;;;;26.84;34.60;100596.05;213115;1274;140585;-63
2022/07/17 11:09:05;;;;;;;3.90;0.60;;;;;;;26.87;33.62;100591.70;214271;1274;140385;-64
2022/07/17 11:14:15;;;;;;;3.40;1.20;;;;;;;25.93;33.22;100594.13;214391;1274;140563;-64
2022/07/17 11:19:24;;;;;;;3.30;0.90;;;;;;;25.28;33.97;100599.77;213875;1274;139225;-64
2022/07/17 11:24:48;;;;;;;1.70;0.80;;;;;;;25.67;34.75;100592.48;213652;1274;139351;-65
2022/07/17 11:29:54;;;;;;;0.90;0.80;;;;;;;25.78;34.29;100592.00;213180;1274;140024;-64
2022/07/17 11:34:59;;;;;;;;;;;;;;;25.08;33.94;100594.48;213598;1277;140446;-64
2022/07/17 11:40:25;;;;;;;2.00;1.00;;;;;;;24.91;34.77;100595.52;213904;1274;126551;-64
2022/07/17 11:45:29;;;;;;;3.00;1.10;;;;;;;25.13;34.73;100600.00;215551;1274;140209;-64
2022/07/17 11:50:33;;;;;;;1.20;1.00;;;;;;;24.95;34.73;100600.70;214242;1274;139417;-63
2022/07/17 11:55:39;;;;;;;3.80;1.20;;;;;;;25.05;34.58;100600.30;213616;1276;140074;-64
2022/07/17 12:00:47;;;;;;;2.20;0.60;;;;;;;25.05;34.80;100602.26;215959;1274;141312;-64
2022/07/17 12:05:52;;;;;;;0.80;0.60;;;;;;;24.71;34.45;100600.96;215005;1274;141107;-65
2022/07/17 12:11:08;;;;;;;4.00;0.90;;;;;;;24.37;34.82;100600.30;214894;1274;153310;-65
2022/07/17 12:16:23;;;;;;;6.10;1.10;;;;;;;24.66;35.15;100597.33;215946;1274;139991;-65
2022/07/17 12:21:28;;;;;;;5.10;1.10;;;;;;;24.32;34.56;100594.73;215348;1274;141163;-65
2022/07/17 12:26:32;;;;;;;4.40;1.10;;;;;;;24.03;34.85;100594.34;216130;1273;139248;-65
2022/07/17 12:31:37;;;;;;;2.20;1.10;;;;;;;23.94;35.36;100592.56;215714;1274;139975;-65
2022/07/17 12:36:45;;;;;;;0.90;0.80;;;;;;;24.28;35.67;100589.04;214970;1274;141192;-64
2022/07/17 12:41:49;;;;;;;2.50;0.80;;;;;;;24.85;35.39;100580.58;215249;1274;140745;-64
2022/07/17 12:46:54;;;;;;;3.20;0.90;;;;;;;24.95;34.98;100589.02;213406;1274;140624;-64
2022/07/17 12:51:58;;;;;;;6.30;1.50;;;;;;;24.95;34.60;100589.73;214769;1274;141217;-64
2022/07/17 12:57:02;;;;;;;7.90;0.90;;;;;;;24.60;34.83;100592.88;214969;1274;140285;-64
2022/07/17 13:02:09;;;;;;;1.40;0.50;;;;;;;24.47;35.07;100595.48;213526;1274;139720;-64
2022/07/17 13:07:14;;;;;;;1.00;0.80;;;;;;;24.80;35.29;100591.42;213991;1274;141316;-64
2022/07/17 13:12:20;;;;;;;3.50;1.00;;;;;;;24.98;34.66;100589.66;213054;1274;139912;-64
2022/07/17 13:17:30;;;;;;;3.80;0.80;;;;;;;24.87;34.41;100586.90;214721;1274;140201;-64
2022/07/17 13:22:35;;;;;;;1.20;1.00;;;;;;;24.42;34.69;100590.81;213641;1274;139967;-64
2022/07/17 13:27:39;;;;;;;1.10;0.80;;;;;;;24.12;35.10;100588.83;213509;1274;141229;-65
2022/07/17 13:32:45;;;;;;;1.60;0.80;;;;;;;23.91;35.20;100591.86;214939;1274;141427;-66
2022/07/17 13:37:50;;;;;;;1.20;1.00;;;;;;;23.69;35.27;100591.79;214158;1274;140000;-64
2022/07/17 13:42:55;;;;;;;1.90;1.00;;;;;;;23.65;35.56;100588.55;213147;1274;141029;-64
2022/07/17 13:47:59;;;;;;;2.60;0.80;;;;;;;24.15;35.64;100576.83;213693;1274;140345;-64
2022/07/17 13:53:02;;;;;;;7.10;1.30;;;;;;;24.55;35.32;100579.63;214093;1274;140119;-63
2022/07/17 13:58:07;;;;;;;2.90;1.10;;;;;;;24.81;34.81;100584.91;213599;1274;140274;-63
2022/07/17 14:03:12;;;;;;;2.50;1.10;;;;;;;24.84;34.16;100591.05;215944;1274;140048;-65
2022/07/17 14:08:18;;;;;;;1.00;0.70;;;;;;;24.65;33.77;100588.51;215929;1274;140025;-65
2022/07/17 14:13:23;;;;;;;2.50;1.00;;;;;;;24.70;33.98;100584.09;216028;1274;139330;-64
2022/07/17 14:18:28;;;;;;;1.40;1.10;;;;;;;24.67;34.10;100582.45;215862;1274;139821;-64
2022/07/17 14:23:32;;;;;;;2.40;0.90;;;;;;;24.56;33.97;100582.28;215593;1274;140821;-64
2022/07/17 14:28:36;;;;;;;4.40;1.30;;;;;;;24.54;33.75;100584.45;215657;1274;141116;-64
2022/07/17 14:33:41;;;;;;;1.30;0.80;;;;;;;24.50;33.42;100582.68;213660;1274;139714;-63
2022/07/17 14:38:46;;;;;;;2.40;1.10;;;;;;;24.34;33.54;100583.20;214858;1274;140411;-64
2022/07/17 14:43:49;;;;;;;0.70;0.60;;;;;;;24.13;33.79;100581.61;213856;1274;139785;-64
2022/07/17 14:48:53;;;;;;;2.60;1.00;;;;;;;24.05;34.14;100579.75;213364;1274;139388;-64
2022/07/17 14:53:58;;;;;;;2.70;1.30;;;;;;;24.10;34.48;100583.20;214548;1276;140167;-67
2022/07/17 14:59:02;;;;;;;2.50;0.90;;;;;;;24.10;34.36;100577.32;213327;1274;141118;-63
2022/07/17 15:04:06;;;;;;;0.70;0.70;;;;;;;24.18;34.26;100574.23;213629;1274;139492;-64
2022/07/17 15:09:11;;;;;;;3.10;0.80;;;;;;;24.18;34.22;100572.38;212995;1274;139563;-63
2022/07/17 15:14:15;;;;;;;1.40;1.30;;;;;;;24.01;33.76;100573.52;214274;1274;140402;-63
2022/07/17 15:19:20;;;;;;;3.90;0.90;;;;;;;23.69;33.97;100573.78;213196;1274;139178;-62
2022/07/17 15:24:23;;;;;;;3.30;1.00;;;;;;;23.67;34.21;100565.91;214621;1274;139668;-63
2022/07/17 15:29:27;;;;;;;5.80;1.00;;;;;;;23.70;34.40;100571.98;213579;1274;139165;-62
2022/07/17 15:34:31;;;;;;;1.60;0.90;;;;;;;23.71;34.28;100572.38;214519;1274;140828;-63
2022/07/17 15:39:37;;;;;;;4.90;1.00;;;;;;;23.65;34.33;100569.88;213478;1274;139907;-62
2022/07/17 15:44:41;;;;;;;3.50;0.90;;;;;;;23.66;34.25;100573.13;213306;1275;140915;-62
2022/07/17 15:49:44;;;;;;;1.90;0.90;;;;;;;23.57;34.41;100569.96;213604;1275;141535;-62
2022/07/17 15:54:49;;;;;;;0.50;0.50;;;;;;;23.61;34.80;100568.36;214233;1274;153198;-62
2022/07/17 15:59:52;;;;;;;1.20;0.80;;;;;;;23.52;34.56;100566.41;213761;1274;139925;-62
2022/07/17 16:04:59;;;;;;;1.00;1.00;;;;;;;23.32;34.58;100564.24;215765;1274;140120;-63
2022/07/17 16:10:04;;;;;;;1.00;0.90;;;;;;;23.37;34.74;100556.21;215869;1274;139961;-64
2022/07/17 16:15:09;;;;;;;1.80;0.80;;;;;;;23.42;34.88;100551.67;214977;1272;140359;-63
2022/07/17 16:20:13;;;;;;;1.90;0.80;;;;;;;23.36;34.56;100552.42;216184;1274;141349;-63
2022/07/17 16:25:18;;;;;;;1.20;0.60;;;;;;;23.19;34.42;100552.10;215865;1274;140768;-63
2022/07/17 16:30:23;;;;;;;1.20;0.80;;;;;;;23.04;34.49;100552.33;215452;1273;140920;-63
2022/07/17 16:35:33;;;;;;;1.20;0.90;;;;;;;22.92;34.76;100548.09;215726;1274;139674;-63
2022/07/17 16:40:38;;;;;;;3.60;1.00;;;;;;;22.80;34.79;100552.17;213465;1274;140134;-63
2022/07/17 16:45:43;;;;;;;0.90;0.60;;;;;;;22.66;34.87;100554.92;214163;1274;139481;-63
2022/07/17 16:50:47;;;;;;;3.00;1.20;;;;;;;22.50;35.16;100553.86;213812;1274;139374;-63
2022/07/17 16:55:51;;;;;;;2.20;1.20;;;;;;;22.35;35.29;100556.03;213410;1274;142663;-63
2022/07/17 17:00:55;;;;;;;5.00;1.40;;;;;;;22.27;35.65;100553.49;215437;1274;141051;-64
2022/07/17 17:06:00;;;;;;;1.40;1.00;;;;;;;22.21;35.92;100558.73;213607;1274;139921;-63
2022/07/17 17:11:05;;;;;;;2.70;1.00;;;;;;;22.05;35.92;100554.73;213311;1274;139995;-64
2022/07/17 17:16:09;;;;;;;3.10;1.40;;;;;;;21.85;36.08;100556.20;213461;1272;139544;-62
2022/07/17 17:21:14;;;;;;;3.20;0.80;;;;;;;21.71;36.23;100558.05;213565;1274;140144;-63
2022/07/17 17:26:18;;;;;;;1.30;0.90;;;;;;;21.53;36.54;100560.73;213502;1274;141869;-63
2022/07/17 17:31:24;;;;;;;6.60;0.90;;;;;;;21.41;36.97;100562.44;212904;1274;139880;-63
2022/07/17 17:36:28;;;;;;;0.70;0.70;;;;;;;21.27;37.04;100564.91;214776;1274;140203;-64
2022/07/17 17:41:39;;;;;;;1.30;1.20;;;;;;;21.09;37.23;100560.32;214215;1274;141128;-63
2022/07/17 17:46:48;;;;;;;4.10;2.00;;;;;;;20.96;37.55;100566.29;214344;1274;142250;-62
2022/07/17 17:51:55;;;;;;;3.90;1.50;;;;;;;20.83;37.55;100569.90;214741;1274;140246;-63
2022/07/17 17:57:03;;;;;;;3.10;2.50;;;;;;;20.71;37.71;100568.92;215554;1274;140215;-62
2022/07/17 18:02:09;;;;;;;7.40;5.40;;;;;;;20.59;37.96;100575.11;216119;1274;140871;-63
2022/07/17 18:07:15;;;;;;;12.40;9.50;;;;;;;20.47;38.26;100579.94;216074;1272;139896;-63
2022/07/17 18:12:21;;;;;;;7.30;5.60;;;;;;;20.33;38.40;100579.84;213551;1276;140574;-64
2022/07/17 18:17:26;;;;;;;;;;;;;;;20.18;38.78;100582.34;216095;1275;140608;-64
2022/07/17 18:22:37;;;;;;;7.20;6.50;;;;;;;19.98;39.77;100582.26;216696;1274;127379;-64
2022/07/17 18:27:42;;;;;;;10.70;9.60;;;;;;;19.79;40.72;100576.86;215494;1274;140674;-65
2022/07/17 18:32:49;;;;;;;5.80;4.40;;;;;;;19.55;41.26;100580.42;213865;1274;142145;-65
2022/07/17 18:37:54;;;;;;;3.30;2.40;;;;;;;19.28;41.59;100580.55;214672;1274;141350;-65
2022/07/17 18:43:01;;;;;;;6.80;1.10;;;;;;;18.98;42.26;100584.27;213064;1274;140260;-64
2022/07/17 18:48:06;;;;;;;1.30;0.80;;;;;;;18.64;43.10;100590.66;213844;1274;140264;-62
2022/07/17 18:53:13;;;;;;;1.60;1.00;;;;;;;18.29;43.63;100595.50;214389;1274;140189;-63
2022/07/17 18:58:19;;;;;;;2.50;1.10;;;;;;;17.94;44.66;100601.02;213997;1274;140701;-64
2022/07/17 19:03:25;;;;;;;1.00;1.00;;;;;;;17.54;45.94;100608.05;214279;1274;141750;-64
2022/07/17 19:08:33;;;;;;;0.70;0.70;;;;;;;17.12;46.92;100608.90;212978;1274;139425;-61
2022/07/17 19:13:38;;;;;;;1.10;1.00;;;;;;;16.83;47.77;100620.39;214218;1274;141476;-64
2022/07/17 19:18:43;;;;;;;1.20;0.60;;;;;;;16.61;48.36;100621.38;214095;1274;140103;-64
2022/07/17 19:23:49;;;;;;;1.90;1.30;;;;;;;16.22;49.00;100622.35;213594;1274;140346;-65
2022/07/17 19:28:57;;;;;;;1.40;0.70;;;;;;;15.79;49.97;100621.41;212933;1277;139898;-65
2022/07/17 19:34:01;;;;;;;4.00;1.30;;;;;;;15.40;50.66;100626.80;213107;1274;141409;-64
2022/07/17 19:39:06;;;;;;;5.00;1.20;;;;;;;15.11;51.44;100634.93;214075;1274;142943;-63
2022/07/17 19:44:10;;;;;;;2.60;1.10;;;;;;;14.98;51.99;100640.49;213866;1274;141833;-64
2022/07/17 19:49:16;;;;;;;2.10;1.40;;;;;;;14.72;52.49;100649.95;213426;1274;140941;-63
2022/07/17 19:54:21;;;;;;;1.30;1.00;;;;;;;14.41;53.15;100649.77;214142;1274;141650;-63
2022/07/17 19:59:26;;;;;;;1.20;1.10;;;;;;;14.16;53.97;100649.55;215302;1274;139744;-65
2022/07/17 20:04:31;;;;;;;5.20;1.60;;;;;;;14.06;54.51;100656.46;215274;1273;139843;-66
2022/07/17 20:09:38;;;;;;;1.30;1.20;;;;;;;14.06;55.00;100656.05;215867;1274;140352;-65
2022/07/17 20:14:43;;;;;;;2.30;1.30;;;;;;;13.97;55.31;100657.71;215723;1274;140471;-64
2022/07/17 20:19:53;;;;;;;1.40;1.30;;;;;;;13.76;55.47;100656.67;215878;1274;140826;-65
2022/07/17 20:25:01;;;;;;;5.30;1.60;;;;;;;13.52;55.97;100658.73;214075;1274;141660;-65
2022/07/17 20:30:07;;;;;;;3.30;1.20;;;;;;;13.31;56.53;100659.61;214849;1274;140631;-64
2022/07/17 20:35:12;;;;;;;1.90;1.40;;;;;;;13.13;57.08;100666.45;215410;1274;144313;-66
2022/07/17 20:40:18;;;;;;;3.30;1.50;;;;;;;12.95;57.58;100668.05;214991;1274;141143;-65
2022/07/17 20:45:23;;;;;;;4.50;1.50;;;;;;;12.76;58.17;100671.67;214208;1274;142458;-66
2022/07/17 20:50:32;;;;;;;1.30;1.00;;;;;;;12.60;58.53;100673.95;214337;1274;140949;-67
2022/07/17 20:55:40;;;;;;;4.10;1.60;;;;;;;12.47;59.03;100673.56;214642;1274;139992;-67
2022/07/17 21:00:49;;;;;;;2.40;1.90;;;;;;;12.30;59.22;100678.98;212564;1274;887527;-66
2022/07/17 21:05:57;;;;;;;2.90;1.20;;;;;;;12.14;59.60;100680.27;213563;1274;139553;-65
2022/07/17 21:11:09;;;;;;;1.70;1.60;;;;;;;11.97;59.86;100677.63;213677;1274;140585;-69
2022/07/17 21:16:16;;;;;;;3.30;1.70;;;;;;;11.81;60.34;100679.52;214216;1274;140254;-67
2022/07/17 21:21:22;;;;;;;3.60;1.70;;;;;;;11.65;60.70;100683.81;213534;1274;150171;-65
2022/07/17 21:26:29;;;;;;;3.60;2.10;;;;;;;11.56;61.00;100689.73;213525;1274;140375;-67
2022/07/17 21:31:37;;;;;;;4.90;2.50;;;;;;;11.59;61.22;100700.44;213888;1274;140698;-65
2022/07/17 21:36:48;;;;;;;4.10;3.10;;;;;;;11.57;61.47;100703.33;213274;1274;209609;-64
2022/07/17 21:41:52;;;;;;;5.40;2.70;;;;;;;11.51;61.63;100705.27;214083;1274;141881;-64
2022/07/17 21:46:56;;;;;;;4.60;2.90;;;;;;;11.46;61.90;100709.94;213940;1274;139893;-64
2022/07/17 21:52:07;;;;;;;4.80;3.00;;;;;;;11.42;62.25;100710.57;213066;1274;140677;-65
2022/07/17 21:57:11;;;;;;;5.00;2.70;;;;;;;11.27;62.26;100714.21;214313;1274;139982;-65
2022/07/17 22:02:17;;;;;;;6.70;3.20;;;;;;;11.10;62.65;100719.36;214281;1274;140642;-65
2022/07/17 22:07:24;;;;;;;4.80;3.00;;;;;;;11.00;63.22;100728.77;214533;1277;139492;-64
2022/07/17 22:12:29;;;;;;;12.10;3.50;;;;;;;10.93;63.49;100726.69;216020;1274;140290;-66
2022/07/17 22:17:33;;;;;;;2.40;2.20;;;;;;;10.90;63.73;100729.33;215600;1274;140977;-66
2022/07/17 22:22:39;;;;;;;3.90;3.10;;;;;;;10.89;64.09;100728.47;215146;1273;140704;-66
2022/07/17 22:27:43;;;;;;;5.50;3.00;;;;;;;10.91;63.94;100725.19;215945;1274;140760;-64
2022/07/17 22:32:48;;;;;;;6.50;3.20;;;;;;;10.81;64.07;100725.27;214701;1274;140517;-65
2022/07/17 22:37:52;;;;;;;8.40;4.00;;;;;;;10.68;64.40;100719.70;213917;1274;140631;-63
2022/07/17 22:42:56;;;;;;;5.90;3.50;;;;;;;10.69;64.83;100722.66;213458;1274;139540;-64
2022/07/17 22:47:59;;;;;;;4.40;3.60;;;;;;;10.71;64.76;100722.55;213754;1274;141213;-63
2022/07/17 22:53:03;;;;;;;7.10;3.40;;;;;;;10.60;64.89;100718.13;214322;1274;140658;-63
2022/07/17 22:58:07;;;;;;;12.90;3.40;;;;;;;10.43;65.16;100715.98;214175;1274;140393;-63
2022/07/17 23:03:11;;;;;;;7.40;2.70;;;;;;;10.22;65.33;100716.53;214416;1274;140334;-64
2022/07/17 23:08:16;;;;;;;4.00;3.00;;;;;;;10.07;65.79;100711.80;213328;1274;141241;-62
2022/07/17 23:13:20;;;;;;;3.40;3.10;;;;;;;10.00;66.14;100714.19;214371;1274;140133;-63